createdAt,value
2023-01-26T00:01:46.637Z,3.18
2023-01-26T00:03:59.832Z,3.20
2023-01-26T00:06:15.186Z,3.21
2023-01-26T00:08:27.745Z,3.23
2023-01-26T00:10:41.973Z,3.25
2023-01-26T00:12:54.572Z,3.27
2023-01-26T00:15:07.869Z,3.25
2023-01-26T00:17:27.140Z,3.22
2023-01-26T00:19:39.795Z,3.17
2023-01-26T00:21:52.371Z,3.13
2023-01-26T00:24:05.238Z,3.16
2023-01-26T00:26:20.645Z,3.17
2023-01-26T00:28:33.176Z,3.20
2023-01-26T00:30:45.867Z,3.24
2023-01-26T00:32:58.518Z,3.26
2023-01-26T00:35:11.575Z,3.26
2023-01-26T00:37:24.100Z,3.29
2023-01-26T00:39:36.718Z,3.29
2023-01-26T00:42:09.840Z,3.26
2023-01-26T00:44:22.467Z,3.18
2023-01-26T00:46:35.200Z,3.12
2023-01-26T00:48:47.765Z,3.08
2023-01-26T00:51:00.318Z,3.04
2023-01-26T00:53:13.104Z,2.95
2023-01-26T00:55:32.203Z,2.86
2023-01-26T00:57:44.814Z,2.84
2023-01-26T00:59:57.561Z,2.93
2023-01-26T01:02:10.172Z,2.98
2023-01-26T01:04:22.816Z,3.02
2023-01-26T01:06:35.629Z,3.04
2023-01-26T01:08:48.175Z,3.04
2023-01-26T01:11:05.483Z,3.02
2023-01-26T01:13:18.031Z,3.03
2023-01-26T01:15:30.597Z,3.10
2023-01-26T01:17:43.177Z,3.18
2023-01-26T01:19:55.791Z,3.22
2023-01-26T01:22:08.354Z,3.27
2023-01-26T01:24:21.084Z,3.28
2023-01-26T01:26:33.755Z,3.25
2023-01-26T01:28:46.516Z,3.21
2023-01-26T01:30:59.553Z,3.17
2023-01-26T01:33:12.199Z,3.14
2023-01-26T01:35:24.711Z,3.12
2023-01-26T01:37:37.360Z,3.11
2023-01-26T01:39:49.904Z,3.07
2023-01-26T01:42:02.521Z,3.03
2023-01-26T01:44:25.828Z,3.02
2023-01-26T01:46:40.432Z,3.03
2023-01-26T01:48:58.761Z,2.99
2023-01-26T01:51:20.460Z,2.97
2023-01-26T01:53:37.574Z,3.01
2023-01-26T01:56:01.386Z,3.02
2023-01-26T01:58:14.584Z,3.02
2023-01-26T02:00:27.834Z,3.04
2023-01-26T02:02:43.241Z,3.03
2023-01-26T02:05:00.709Z,3.06
2023-01-26T02:07:13.748Z,3.10
2023-01-26T02:09:50.401Z,3.14
2023-01-26T02:12:05.987Z,3.12
2023-01-26T02:14:18.627Z,3.10
2023-01-26T02:16:31.247Z,3.09
2023-01-26T02:18:45.648Z,3.11
2023-01-26T02:21:02.561Z,3.10
2023-01-26T02:23:47.303Z,3.08
2023-01-26T02:26:07.147Z,2.97
2023-01-26T02:28:24.672Z,2.91
2023-01-26T02:30:37.432Z,2.87
2023-01-26T02:32:50.014Z,2.86
2023-01-26T02:35:02.616Z,2.91
2023-01-26T02:37:15.479Z,2.97
2023-01-26T02:39:41.532Z,2.98
2023-01-26T02:42:13.164Z,2.98
2023-01-26T02:44:27.357Z,2.94
2023-01-26T02:46:40.155Z,2.95
2023-01-26T02:49:11.662Z,2.97
2023-01-26T02:51:24.308Z,2.99
2023-01-26T02:53:36.866Z,2.97
2023-01-26T02:55:49.518Z,2.97
2023-01-26T02:58:04.385Z,2.96
2023-01-26T03:00:25.956Z,2.92
2023-01-26T03:02:40.749Z,2.88
2023-01-26T03:04:53.303Z,2.87
2023-01-26T03:07:05.825Z,2.87
2023-01-26T03:09:18.722Z,2.89
2023-01-26T03:11:42.015Z,2.93
2023-01-26T03:13:54.627Z,2.95
2023-01-26T03:16:10.242Z,2.98
2023-01-26T03:18:41.792Z,2.97
2023-01-26T03:21:12.727Z,2.88
2023-01-26T03:23:44.204Z,2.82
2023-01-26T03:26:15.667Z,2.77
2023-01-26T03:28:28.268Z,2.76
2023-01-26T03:30:40.831Z,2.78
2023-01-26T03:32:53.382Z,2.78
2023-01-26T03:35:06.976Z,2.79
2023-01-26T03:37:22.670Z,2.80
2023-01-26T03:39:53.965Z,2.79
2023-01-26T03:42:25.638Z,2.80
2023-01-26T03:44:56.989Z,2.77
2023-01-26T03:47:28.297Z,2.78
2023-01-26T03:49:59.827Z,2.77
2023-01-26T03:52:31.207Z,2.74
2023-01-26T03:55:02.719Z,2.75
2023-01-26T03:57:15.293Z,2.75
2023-01-26T03:59:40.078Z,2.77
2023-01-26T04:02:11.509Z,2.74
2023-01-26T04:04:42.951Z,2.66
2023-01-26T04:07:14.044Z,2.60
2023-01-26T04:09:27.258Z,2.55
2023-01-26T04:11:39.866Z,2.54
2023-01-26T04:14:11.053Z,2.57
2023-01-26T04:16:42.355Z,2.56
2023-01-26T04:19:14.104Z,2.54
2023-01-26T04:21:26.707Z,2.49
2023-01-26T04:23:39.328Z,2.51
2023-01-26T04:25:51.827Z,2.53
2023-01-26T04:28:04.566Z,2.53
2023-01-26T04:30:18.106Z,2.52
2023-01-26T04:32:30.992Z,2.54
2023-01-26T04:34:43.641Z,2.52
2023-01-26T04:36:56.220Z,2.48
2023-01-26T04:39:09.338Z,2.50
2023-01-26T04:41:22.209Z,2.51
2023-01-26T04:43:34.817Z,2.47
2023-01-26T04:46:16.906Z,2.43
2023-01-26T04:48:30.047Z,2.41
2023-01-26T04:50:42.584Z,2.45
2023-01-26T04:52:55.105Z,2.49
2023-01-26T04:55:08.021Z,2.53
2023-01-26T04:57:21.284Z,2.52
2023-01-26T04:59:34.244Z,2.51
2023-01-26T05:01:47.241Z,2.50
2023-01-26T05:04:03.278Z,2.48
2023-01-26T05:06:16.166Z,2.46
2023-01-26T05:08:28.727Z,2.49
2023-01-26T05:10:41.345Z,2.46
2023-01-26T05:12:53.966Z,2.44
2023-01-26T05:15:06.948Z,2.42
2023-01-26T05:17:19.535Z,2.40
2023-01-26T05:19:32.325Z,2.40
2023-01-26T05:21:44.922Z,2.44
2023-01-26T05:23:57.584Z,2.47
2023-01-26T05:26:11.697Z,2.44
2023-01-26T05:28:24.473Z,2.44
2023-01-26T05:30:37.204Z,2.43
2023-01-26T05:32:49.948Z,2.44
2023-01-26T05:35:03.295Z,2.48
2023-01-26T05:37:15.824Z,2.49
2023-01-26T05:39:28.440Z,2.44
2023-01-26T05:41:40.999Z,2.43
2023-01-26T05:43:53.570Z,2.41
2023-01-26T05:46:06.250Z,2.37
2023-01-26T05:48:18.936Z,2.36
2023-01-26T05:50:31.911Z,2.36
2023-01-26T05:52:46.622Z,2.37
2023-01-26T05:54:59.316Z,2.36
2023-01-26T05:57:12.382Z,2.38
2023-01-26T05:59:25.010Z,2.38
2023-01-26T06:01:37.665Z,2.39
2023-01-26T06:03:50.235Z,2.40
2023-01-26T06:06:02.835Z,2.39
2023-01-26T06:08:15.406Z,2.37
2023-01-26T06:10:27.983Z,2.38
2023-01-26T06:12:42.958Z,2.36
2023-01-26T06:14:58.427Z,2.32
2023-01-26T06:17:18.236Z,2.29
2023-01-26T06:19:30.846Z,2.29
2023-01-26T06:21:43.434Z,2.28
2023-01-26T06:23:56.037Z,2.29
2023-01-26T06:26:10.811Z,2.32
2023-01-26T06:28:23.622Z,2.32
2023-01-26T06:30:36.369Z,2.33
2023-01-26T06:32:49.021Z,2.35
2023-01-26T06:35:09.229Z,2.41
2023-01-26T06:37:21.839Z,2.44
2023-01-26T06:39:34.513Z,2.45
2023-01-26T06:41:47.053Z,2.45
2023-01-26T06:43:59.639Z,2.46
2023-01-26T06:46:12.496Z,2.48
2023-01-26T06:48:26.997Z,2.50
2023-01-26T06:50:39.823Z,2.54
2023-01-26T06:52:56.133Z,2.54
2023-01-26T06:55:21.025Z,2.54
2023-01-26T06:57:33.606Z,2.51
2023-01-26T06:59:46.143Z,2.52
2023-01-26T07:01:58.823Z,2.53
2023-01-26T07:04:11.468Z,2.51
2023-01-26T07:06:24.012Z,2.50
2023-01-26T07:08:37.550Z,2.53
2023-01-26T07:10:51.117Z,2.55
2023-01-26T07:13:05.369Z,2.58
2023-01-26T07:15:18.068Z,2.61
2023-01-26T07:17:31.840Z,2.63
2023-01-26T07:19:45.310Z,2.58
2023-01-26T07:21:58.139Z,2.58
2023-01-26T07:24:10.949Z,2.60
2023-01-26T07:26:23.586Z,2.64
2023-01-26T07:28:38.615Z,2.67
2023-01-26T07:30:53.621Z,2.65
2023-01-26T07:33:06.124Z,2.65
2023-01-26T07:35:26.079Z,2.66
2023-01-26T07:37:38.875Z,2.65
2023-01-26T07:39:51.386Z,2.62
2023-01-26T07:42:06.260Z,2.59
2023-01-26T07:44:18.784Z,2.59
2023-01-26T07:46:35.630Z,2.59
2023-01-26T07:48:48.213Z,2.59
2023-01-26T07:51:03.553Z,2.58
2023-01-26T07:53:22.877Z,2.61
2023-01-26T07:55:37.020Z,2.64
2023-01-26T07:57:49.907Z,2.67
2023-01-26T08:00:04.054Z,2.71
2023-01-26T08:02:16.587Z,2.72
2023-01-26T08:04:29.215Z,2.67
2023-01-26T08:06:42.060Z,2.64
2023-01-26T08:08:54.668Z,2.62
2023-01-26T08:11:08.701Z,2.58
2023-01-26T08:13:34.399Z,2.56
2023-01-26T08:15:47.487Z,2.53
2023-01-26T08:18:03.625Z,2.49
2023-01-26T08:20:16.588Z,2.48
2023-01-26T08:22:29.086Z,2.46
2023-01-26T08:24:41.652Z,2.42
2023-01-26T08:26:54.482Z,2.38
2023-01-26T08:29:07.455Z,2.35
2023-01-26T08:31:21.672Z,2.35
2023-01-26T08:33:34.912Z,2.39
2023-01-26T08:35:47.468Z,2.45
2023-01-26T08:38:00.664Z,2.48
2023-01-26T08:40:13.696Z,2.50
2023-01-26T08:42:26.400Z,2.54
2023-01-26T08:44:40.171Z,2.55
2023-01-26T08:46:52.812Z,2.51
2023-01-26T08:49:06.354Z,2.46
2023-01-26T08:51:18.912Z,2.41
2023-01-26T08:53:33.180Z,2.41
2023-01-26T08:55:45.825Z,2.48
2023-01-26T08:57:58.755Z,2.51
2023-01-26T09:00:12.738Z,2.55
2023-01-26T09:02:25.820Z,2.60
2023-01-26T09:04:38.413Z,2.67
2023-01-26T09:06:51.425Z,2.66
2023-01-26T09:09:04.003Z,2.65
2023-01-26T09:11:17.352Z,2.64
2023-01-26T09:13:29.865Z,2.63
2023-01-26T09:15:42.409Z,2.66
2023-01-26T09:17:55.102Z,2.70
2023-01-26T09:20:10.091Z,2.74
2023-01-26T09:22:22.875Z,2.79
2023-01-26T09:24:35.420Z,2.82
2023-01-26T09:26:48.106Z,2.84
2023-01-26T09:29:00.655Z,2.85
2023-01-26T09:31:13.449Z,2.93
2023-01-26T09:33:26.832Z,3.02
2023-01-26T09:35:39.479Z,3.07
2023-01-26T09:37:52.059Z,3.11
2023-01-26T09:40:06.173Z,3.12
2023-01-26T09:42:39.280Z,3.11
2023-01-26T09:45:07.478Z,3.13
2023-01-26T09:47:53.550Z,3.21
2023-01-26T09:50:22.974Z,3.20
2023-01-26T09:52:47.152Z,3.05
2023-01-26T09:55:03.967Z,2.94
2023-01-26T09:57:20.888Z,2.88
2023-01-26T09:59:54.003Z,2.82
2023-01-26T10:02:42.195Z,2.75
2023-01-26T10:05:01.256Z,2.64
2023-01-26T10:07:14.993Z,2.65
2023-01-26T10:09:33.293Z,2.72
2023-01-26T10:11:52.898Z,2.79
2023-01-26T10:14:15.048Z,2.84
2023-01-26T10:16:27.634Z,2.88
2023-01-26T10:18:54.070Z,2.88
2023-01-26T10:21:10.501Z,2.85
2023-01-26T10:23:32.381Z,2.86
2023-01-26T10:25:47.065Z,2.88
2023-01-26T10:28:00.371Z,2.88
2023-01-26T10:30:17.248Z,2.87
2023-01-26T10:32:32.352Z,2.90
2023-01-26T10:34:48.211Z,2.91
2023-01-26T10:37:22.636Z,2.95
2023-01-26T10:39:35.217Z,2.97
2023-01-26T10:41:59.830Z,2.98
2023-01-26T10:44:15.071Z,3.02
2023-01-26T10:46:34.361Z,3.09
2023-01-26T10:48:53.051Z,3.12
2023-01-26T10:51:21.599Z,3.13
2023-01-26T10:53:34.276Z,3.10
2023-01-26T10:56:00.711Z,3.10
2023-01-26T10:58:41.582Z,3.07
2023-01-26T11:00:57.389Z,3.02
2023-01-26T11:03:18.879Z,3.02
2023-01-26T11:05:31.584Z,3.02
2023-01-26T11:07:47.369Z,3.02
2023-01-26T11:10:18.919Z,3.06
2023-01-26T11:12:31.574Z,3.08
2023-01-26T11:15:00.926Z,3.07
2023-01-26T11:17:25.979Z,3.13
2023-01-26T11:19:55.680Z,3.24
2023-01-26T11:22:13.227Z,3.30
2023-01-26T11:24:30.354Z,3.34
2023-01-26T11:26:51.950Z,3.31
2023-01-26T11:29:23.551Z,3.32
2023-01-26T11:31:57.572Z,3.27
2023-01-26T11:34:28.944Z,3.15
2023-01-26T11:37:08.723Z,3.04
2023-01-26T11:39:24.215Z,3.05
2023-01-26T11:41:54.327Z,3.07
2023-01-26T11:44:40.935Z,3.06
2023-01-26T11:47:03.883Z,3.05
2023-01-26T11:49:47.039Z,3.08
2023-01-26T11:52:29.231Z,3.08
2023-01-26T11:54:59.991Z,2.99
2023-01-26T11:57:33.501Z,2.91
2023-01-26T11:59:57.312Z,2.86
2023-01-26T12:02:31.803Z,2.85
2023-01-26T12:04:46.863Z,2.85
2023-01-26T12:07:11.297Z,2.91
2023-01-26T12:09:39.702Z,2.95
2023-01-26T12:12:32.797Z,2.95
2023-01-26T12:14:53.149Z,2.82
2023-01-26T12:17:17.723Z,2.77
2023-01-26T12:19:45.307Z,2.76
2023-01-26T12:22:05.315Z,2.80
2023-01-26T12:25:00.965Z,2.86
2023-01-26T12:27:19.159Z,2.90
2023-01-26T12:29:54.530Z,2.92
2023-01-26T12:32:14.543Z,2.93
2023-01-26T12:34:29.547Z,2.95
2023-01-26T12:36:57.199Z,2.97
2023-01-26T12:39:37.858Z,2.93
2023-01-26T12:42:17.326Z,2.87
2023-01-26T12:44:39.752Z,2.92
2023-01-26T12:46:58.570Z,3.03
2023-01-26T12:49:25.597Z,3.11
2023-01-26T12:51:46.808Z,3.10
2023-01-26T12:54:02.460Z,3.08
2023-01-26T12:56:28.698Z,3.15
2023-01-26T12:58:45.589Z,3.17
2023-01-26T13:01:10.310Z,3.16
2023-01-26T13:03:31.084Z,3.14
2023-01-26T13:05:57.638Z,3.12
2023-01-26T13:08:33.195Z,3.08
2023-01-26T13:10:49.958Z,3.05
2023-01-26T13:13:14.628Z,3.11
2023-01-26T13:15:29.981Z,3.19
2023-01-26T13:17:49.623Z,3.21
2023-01-26T13:20:22.138Z,3.20
2023-01-26T13:22:42.439Z,3.17
2023-01-26T13:25:20.251Z,3.17
2023-01-26T13:27:40.310Z,3.15
2023-01-26T13:29:55.390Z,3.17
2023-01-26T13:32:13.947Z,3.20
2023-01-26T13:34:32.275Z,3.23
2023-01-26T13:36:48.201Z,3.25
2023-01-26T13:39:14.384Z,3.28
2023-01-26T13:41:27.206Z,3.35
2023-01-26T13:44:18.563Z,3.39
2023-01-26T13:46:38.096Z,3.36
2023-01-26T13:48:52.959Z,3.35
2023-01-26T13:51:09.161Z,3.37
2023-01-26T13:53:37.460Z,3.39
2023-01-26T13:55:57.763Z,3.40
2023-01-26T13:58:16.984Z,3.40
2023-01-26T14:00:29.645Z,3.41
2023-01-26T14:02:49.514Z,3.43
2023-01-26T14:05:03.301Z,3.41
2023-01-26T14:07:25.142Z,3.38
2023-01-26T14:09:48.368Z,3.31
2023-01-26T14:12:06.322Z,3.30
2023-01-26T14:14:27.969Z,3.30
2023-01-26T14:16:40.651Z,3.31
2023-01-26T14:19:12.463Z,3.35
2023-01-26T14:21:25.078Z,3.34
2023-01-26T14:23:37.657Z,3.36
2023-01-26T14:26:20.308Z,3.42
2023-01-26T14:28:40.826Z,3.38
2023-01-26T14:31:01.707Z,3.38
2023-01-26T14:33:16.758Z,3.34
2023-01-26T14:35:29.822Z,3.34
2023-01-26T14:37:42.329Z,3.37
2023-01-26T14:40:27.874Z,3.39
2023-01-26T14:42:41.106Z,3.36
2023-01-26T14:44:53.658Z,3.38
2023-01-26T14:47:16.635Z,3.44
2023-01-26T14:49:56.257Z,3.48
2023-01-26T14:52:21.203Z,3.46
2023-01-26T14:54:39.467Z,3.48
2023-01-26T14:56:52.170Z,3.49
2023-01-26T14:59:07.778Z,3.50
2023-01-26T15:01:25.980Z,3.51
2023-01-26T15:03:39.022Z,3.45
2023-01-26T15:06:05.965Z,3.38
2023-01-26T15:08:25.273Z,3.25
2023-01-26T15:10:41.262Z,3.16
2023-01-26T15:13:15.164Z,3.11
2023-01-26T15:15:33.614Z,3.07
2023-01-26T15:17:47.895Z,3.05
2023-01-26T15:20:00.480Z,3.00
2023-01-26T15:22:22.085Z,3.05
2023-01-26T15:24:34.691Z,3.11
2023-01-26T15:26:47.324Z,3.19
2023-01-26T15:29:03.434Z,3.23
2023-01-26T15:31:41.672Z,3.28
2023-01-26T15:33:55.131Z,3.28
2023-01-26T15:36:32.738Z,3.29
2023-01-26T15:38:45.567Z,3.22
2023-01-26T15:40:59.206Z,3.18
2023-01-26T15:43:20.204Z,3.14
2023-01-26T15:45:37.071Z,3.08
2023-01-26T15:47:50.202Z,3.02
2023-01-26T15:50:03.044Z,3.01
2023-01-26T15:52:18.042Z,2.98
2023-01-26T15:54:30.577Z,2.94
2023-01-26T15:56:43.536Z,2.89
2023-01-26T15:58:56.177Z,2.85
2023-01-26T16:01:20.451Z,2.82
2023-01-26T16:03:33.047Z,2.77
2023-01-26T16:05:49.299Z,2.77
2023-01-26T16:08:01.828Z,2.73
2023-01-26T16:10:17.988Z,2.68
2023-01-26T16:12:32.272Z,2.62
2023-01-26T16:14:45.054Z,2.60
2023-01-26T16:16:57.533Z,2.59
2023-01-26T16:19:20.597Z,2.59
2023-01-26T16:21:41.055Z,2.58
2023-01-26T16:23:54.584Z,2.58
2023-01-26T16:26:10.746Z,2.57
2023-01-26T16:28:24.941Z,2.57
2023-01-26T16:30:38.492Z,2.60
2023-01-26T16:32:51.807Z,2.64
2023-01-26T16:35:20.238Z,2.63
2023-01-26T16:37:32.933Z,2.61
2023-01-26T16:39:45.479Z,2.63
2023-01-26T16:41:57.991Z,2.61
2023-01-26T16:44:14.159Z,2.60
2023-01-26T16:46:28.113Z,2.58
2023-01-26T16:48:41.170Z,2.59
2023-01-26T16:50:54.621Z,2.58
2023-01-26T16:53:20.364Z,2.57
2023-01-26T16:55:32.959Z,2.52
2023-01-26T16:57:47.376Z,2.51
2023-01-26T16:59:59.920Z,2.48
2023-01-26T17:02:23.889Z,2.47
2023-01-26T17:04:36.589Z,2.45
2023-01-26T17:06:49.213Z,2.47
2023-01-26T17:09:01.945Z,2.51
2023-01-26T17:11:20.235Z,2.51
2023-01-26T17:13:32.805Z,2.54
2023-01-26T17:15:46.560Z,2.54
2023-01-26T17:17:59.264Z,2.56
2023-01-26T17:20:19.348Z,2.58
2023-01-26T17:22:32.534Z,2.59
2023-01-26T17:24:45.182Z,2.63
2023-01-26T17:26:57.778Z,2.67
2023-01-26T17:29:11.359Z,2.70
2023-01-26T17:31:24.647Z,2.73
2023-01-26T17:33:38.381Z,2.75
2023-01-26T17:36:00.059Z,2.76
2023-01-26T17:38:12.683Z,2.78
2023-01-26T17:40:25.200Z,2.81
2023-01-26T17:42:37.771Z,2.78
2023-01-26T17:44:51.157Z,2.77
2023-01-26T17:47:03.924Z,2.78
2023-01-26T17:49:16.620Z,2.79
2023-01-26T17:51:29.154Z,2.80
2023-01-26T17:53:43.036Z,2.81
2023-01-26T17:55:55.612Z,2.74
2023-01-26T17:58:10.993Z,2.63
2023-01-26T18:00:23.545Z,2.61
2023-01-26T18:02:37.718Z,2.63
2023-01-26T18:04:50.451Z,2.64
2023-01-26T18:07:03.106Z,2.66
2023-01-26T18:09:15.832Z,2.70
2023-01-26T18:11:28.820Z,2.74
2023-01-26T18:13:41.767Z,2.77
2023-01-26T18:15:55.036Z,2.76
2023-01-26T18:18:07.603Z,2.73
2023-01-26T18:20:20.114Z,2.75
2023-01-26T18:22:32.784Z,2.77
2023-01-26T18:24:45.451Z,2.75
2023-01-26T18:26:57.982Z,2.73
2023-01-26T18:29:11.252Z,2.70
2023-01-26T18:31:35.583Z,2.63
2023-01-26T18:33:49.463Z,2.57
2023-01-26T18:36:06.961Z,2.53
2023-01-26T18:38:19.523Z,2.45
2023-01-26T18:40:32.098Z,2.43
2023-01-26T18:42:44.865Z,2.44
2023-01-26T18:45:03.494Z,2.46
2023-01-26T18:47:16.068Z,2.46
2023-01-26T18:49:28.628Z,2.42
2023-01-26T18:51:47.789Z,2.39
2023-01-26T18:54:00.957Z,2.36
2023-01-26T18:56:15.945Z,2.39
2023-01-26T18:58:29.493Z,2.38
2023-01-26T19:00:43.321Z,2.37
2023-01-26T19:02:55.997Z,2.41
2023-01-26T19:05:09.207Z,2.46
2023-01-26T19:07:21.900Z,2.50
2023-01-26T19:09:35.894Z,2.50
2023-01-26T19:11:48.584Z,2.51
2023-01-26T19:14:02.642Z,2.50
2023-01-26T19:16:15.404Z,2.48
2023-01-26T19:18:28.306Z,2.46
2023-01-26T19:20:41.349Z,2.45
2023-01-26T19:22:55.428Z,2.45
2023-01-26T19:25:08.436Z,2.45
2023-01-26T19:27:21.318Z,2.44
2023-01-26T19:29:34.007Z,2.45
2023-01-26T19:31:46.671Z,2.46
2023-01-26T19:34:01.651Z,2.47
2023-01-26T19:36:14.398Z,2.47
2023-01-26T19:38:27.182Z,2.48
2023-01-26T19:40:39.779Z,2.49
2023-01-26T19:42:52.336Z,2.49
2023-01-26T19:45:05.278Z,2.52
2023-01-26T19:47:17.850Z,2.52
2023-01-26T19:49:30.511Z,2.46
2023-01-26T19:51:43.270Z,2.46
2023-01-26T19:53:58.811Z,2.48
2023-01-26T19:56:20.305Z,2.46
2023-01-26T19:58:33.383Z,2.41
2023-01-26T20:00:46.240Z,2.40
2023-01-26T20:02:58.922Z,2.42
2023-01-26T20:05:12.037Z,2.41
2023-01-26T20:07:25.073Z,2.39
2023-01-26T20:09:37.880Z,2.38
2023-01-26T20:11:50.484Z,2.39
2023-01-26T20:14:08.547Z,2.39
2023-01-26T20:16:21.834Z,2.37
2023-01-26T20:18:36.165Z,2.38
2023-01-26T20:20:50.335Z,2.41
2023-01-26T20:23:03.842Z,2.45
2023-01-26T20:25:16.521Z,2.46
2023-01-26T20:27:30.187Z,2.49
2023-01-26T20:29:43.156Z,2.50
2023-01-26T20:31:55.807Z,2.52
2023-01-26T20:34:09.515Z,2.55
2023-01-26T20:36:25.796Z,2.57
2023-01-26T20:38:39.361Z,2.58
2023-01-26T20:40:52.254Z,2.60
2023-01-26T20:43:04.893Z,2.57
2023-01-26T20:45:18.371Z,2.57
2023-01-26T20:47:33.985Z,2.58
2023-01-26T20:49:46.780Z,2.59
2023-01-26T20:51:59.824Z,2.61
2023-01-26T20:54:15.219Z,2.62
2023-01-26T20:56:27.975Z,2.63
2023-01-26T20:58:42.727Z,2.64
2023-01-26T21:01:03.725Z,2.64
2023-01-26T21:03:19.213Z,2.55
2023-01-26T21:05:32.642Z,2.45
2023-01-26T21:07:45.625Z,2.40
2023-01-26T21:09:58.454Z,2.38
2023-01-26T21:12:14.769Z,2.37
2023-01-26T21:14:27.491Z,2.32
2023-01-26T21:16:40.703Z,2.29
2023-01-26T21:18:54.176Z,2.28
2023-01-26T21:21:08.547Z,2.27
2023-01-26T21:23:21.427Z,2.24
2023-01-26T21:25:34.009Z,2.21
2023-01-26T21:27:46.518Z,2.19
2023-01-26T21:29:59.085Z,2.16
2023-01-26T21:32:11.881Z,2.12
2023-01-26T21:34:24.531Z,2.09
2023-01-26T21:36:37.325Z,2.08
2023-01-26T21:38:52.112Z,2.04
2023-01-26T21:41:28.968Z,2.00
2023-01-26T21:43:41.687Z,1.94
2023-01-26T21:45:58.924Z,1.90
2023-01-26T21:48:35.755Z,1.89
2023-01-26T21:52:37.356Z,1.84
2023-01-26T21:54:50.066Z,1.71
2023-01-26T21:57:04.402Z,1.73
2023-01-26T21:59:18.343Z,1.75
2023-01-26T22:01:32.764Z,1.74
2023-01-26T22:03:45.417Z,1.75
2023-01-26T22:05:58.007Z,1.78
2023-01-26T22:08:10.635Z,1.81
2023-01-26T22:10:23.172Z,1.82
2023-01-26T22:12:35.741Z,1.83
2023-01-26T22:14:50.182Z,1.83
2023-01-26T22:17:02.741Z,1.83
2023-01-26T22:19:15.464Z,1.83
2023-01-26T22:21:28.067Z,1.83
2023-01-26T22:23:41.386Z,1.83
2023-01-26T22:25:54.057Z,1.82
2023-01-26T22:28:07.594Z,1.80
2023-01-26T22:30:20.199Z,1.81
2023-01-26T22:32:32.718Z,1.80
2023-01-26T22:34:45.398Z,1.79
2023-01-26T22:36:57.955Z,1.78
2023-01-26T22:39:12.111Z,1.77
2023-01-26T22:41:27.352Z,1.76
2023-01-26T22:43:39.998Z,1.75
2023-01-26T22:45:53.336Z,1.74
2023-01-26T22:48:06.822Z,1.74
2023-01-26T22:50:19.523Z,1.75
2023-01-26T22:52:32.222Z,1.76
2023-01-26T22:54:44.768Z,1.77
2023-01-26T22:56:57.346Z,1.79
2023-01-26T22:59:09.940Z,1.81
2023-01-26T23:01:23.143Z,1.80
2023-01-26T23:03:36.551Z,1.77
2023-01-26T23:05:49.211Z,1.74
2023-01-26T23:08:02.163Z,1.73
2023-01-26T23:10:15.079Z,1.70
2023-01-26T23:12:27.658Z,1.70
2023-01-26T23:14:40.195Z,1.71
2023-01-26T23:16:52.899Z,1.69
2023-01-26T23:19:05.829Z,1.71
2023-01-26T23:21:19.334Z,1.71
2023-01-26T23:23:32.116Z,1.70
2023-01-26T23:25:51.393Z,1.71
2023-01-26T23:28:04.405Z,1.73
2023-01-26T23:30:17.184Z,1.76
2023-01-26T23:32:29.722Z,1.77
2023-01-26T23:34:42.221Z,1.77
2023-01-26T23:36:54.741Z,1.76
2023-01-26T23:39:07.326Z,1.75
2023-01-26T23:41:19.873Z,1.76
2023-01-26T23:43:32.805Z,1.74
2023-01-26T23:45:46.836Z,1.72
2023-01-26T23:47:59.808Z,1.73
2023-01-26T23:50:12.615Z,1.73
2023-01-26T23:52:25.351Z,1.74
2023-01-26T23:54:38.465Z,1.74
2023-01-26T23:56:51.007Z,1.73
2023-01-26T23:59:03.574Z,1.71
